METAR Data
IDs: Format: Raw Decoded Include TAF

Data at: 1104 UTC 26 Sep 2018

KAUG 261053Z AUTO 18007KT 150V210 2 1/2SM BR OVC002 18/18 A2999 RMK AO2 SLP155 T01780178
KAUG 261037Z AUTO 19007KT 3SM BR OVC002 18/18 A3000 RMK AO2 T01780178
KAUG 260953Z AUTO 19005KT 1 1/4SM BR OVC002 17/17 A3001 RMK AO2 SLP161 T01720172
KAUG 260936Z AUTO 19007KT 150V210 1SM BR VV002 17/17 A3001 RMK AO2 T01720172
KAUG 260910Z AUTO 18009G14KT 1/2SM FG VV002 17/17 A3001 RMK AO2 T01720172
KAUG 260853Z AUTO 17007KT 1/4SM FG VV002 17/17 A3001 RMK AO2 SLP163 60004 T01720172 58019
KAUG 260823Z AUTO 18007KT 1/4SM FG VV002 17/17 A3003 RMK AO2 T01720172
KAUG 260753Z AUTO VRB06KT 1/2SM FG VV002 17/17 A3004 RMK AO2 SLP174 T01720172
KAUG 260748Z AUTO 20006KT 1/2SM FG VV002 17/17 A3005 RMK AO2
KAUG 260734Z AUTO 19009KT 1 1/4SM BR OVC002 17/17 A3005 RMK AO2 T01720172
KAUG 260723Z AUTO 19007KT 2SM BR OVC002 17/17 A3005 RMK AO2 T01720172
KAUG 260653Z AUTO 19007KT 3SM BR OVC004 17/17 A3007 RMK AO2 RAB0559E28 SLP182 P0004 T01720172
KAUG 260627Z AUTO 19007KT 4SM -RA BR OVC003 17/17 A3008 RMK AO2 RAB0559 P0004 T01720172
KAUG 260618Z AUTO VRB06KT 2 1/2SM -RA BR OVC003 17/17 A3008 RMK AO2 RAB0559 P0004 T01720172
KAUG 260611Z AUTO 18007KT 1 3/4SM -RA BR OVC003 17/17 A3009 RMK AO2 RAB0559 P0003 T01720172
KAUG 260553Z AUTO VRB04KT 2 1/2SM BR OVC003 17/17 A3010 RMK AO2 RAE18B37E48 SLP193 P0002 60095 T01670167 10167 20133 56040
KAUG 260536Z AUTO VRB04KT 3SM BR OVC004 16/16 A3011 RMK AO2 RAE18 P0002 T01610161
KAUG 260530Z AUTO VRB05KT 1 3/4SM BR OVC004 16/16 A3011 RMK AO2 RAE18 P0002 T01560156
KAUG 260453Z AUTO 14004KT 1SM -RA BR FEW003 OVC009 16/16 A3013 RMK AO2 SLP203 P0009 T01560156 401560022
KAUG 260437Z AUTO 14005KT 1 1/2SM -RA BR FEW003 BKN007 OVC011 15/15 A3013 RMK AO2 P0008 T01500150
KAUG 260429Z AUTO 12005KT 2 1/2SM -RA BR FEW004 BKN007 OVC010 15/15 A3014 RMK AO2 P0008 T01500150
KAUG 260425Z AUTO 12005KT 3SM -RA BR FEW004 OVC010 15/15 A3014 RMK AO2 P0008 T01500150
KAUG 260415Z AUTO 12005KT 2 1/2SM RA BR OVC009 15/15 A3015 RMK AO2 P0006 T01500150
KAUG 260353Z AUTO 12005KT 3SM -RA BR FEW005 OVC009 15/15 A3017 RMK AO2 SLP215 P0019 T01500150
KAUG 260339Z AUTO 12004KT 2 1/2SM -RA BR FEW005 OVC009 15/15 A3018 RMK AO2 P0016 T01500150
KAUG 260328Z AUTO 12004KT 2SM RA BR BKN013 BKN018 OVC026 15/15 A3019 RMK AO2 P0014 T01500150
KAUG 260309Z AUTO 13003KT 2 1/2SM RA BR FEW009 BKN016 OVC025 14/14 A3020 RMK AO2 P0008 T01440144
KAUG 260258Z AUTO 15004KT 2 1/2SM RA BR SCT009 OVC013 14/14 A3021 RMK AO2 P0002 T01440144
KAUG 260253Z AUTO 15003KT 3SM -RA BR BKN011 OVC014 14/14 A3022 RMK AO2 SLP234 P0015 60065 T01440144 58006
KAUG 260249Z AUTO 15004KT 3SM RA BR FEW004 BKN011 OVC014 14/14 A3022 RMK AO2 P0015
KAUG 260219Z AUTO 16003KT 2 1/2SM -RA BR BKN006 OVC009 14/14 A3023 RMK AO2 P0008 T01440144
KAUG 260153Z AUTO 11005KT 2SM +RA BR FEW004 BKN010 OVC016 14/14 A3023 RMK AO2 PRESFR SLP240 P0037 T01390139
KAUG 260132Z AUTO 13006KT 2 1/2SM RA BR SCT006 BKN010 OVC016 14/14 A3026 RMK AO2 P0026 T01390139
KAUG 260125Z AUTO 14009KT 1 3/4SM +RA BR BKN006 OVC012 14/14 A3026 RMK AO2 P0024 T01390139
KAUG 260053Z AUTO 14007KT 2 1/2SM +RA BR OVC005 14/13 A3028 RMK AO2 CIG 004V008 SLP257 P0013 T01390133
KAUG 260023Z AUTO 15008G16KT 5SM -RA BR BKN006 OVC011 13/13 A3031 RMK AO2 CIG 003V009 P0005 T01330133
KAUG 260011Z AUTO 15008KT 3SM -RA BR BKN004 OVC009 13/13 A3031 RMK AO2 CIG 003V008 PRESFR P0004 T01330133
KAUG 260004Z AUTO 15008KT 2 1/2SM RA BR OVC006 13/13 A3032 RMK AO2 CIG 003V011 P0003 T01330133
KAUG 252353Z AUTO 16005KT 3SM RA BR OVC008 13/13 A3034 RMK AO2 CIG 005V009 SLP275 P0006 60016 T01330133 10144 20133 58009
KAUG 252314Z AUTO 14007KT 5SM -RA BR BKN009 OVC014 13/13 A3034 RMK AO2 CIG 005V011 P0001 T01330128
KAUG 252253Z AUTO 14005KT 5SM -RA BR BKN012 OVC017 13/13 A3034 RMK AO2 SLP277 P0003 T01330128
KAUG 252231Z AUTO VRB05KT 8SM -RA BKN010 BKN014 OVC040 13/13 A3035 RMK AO2 P0002 T01330128
KAUG 252153Z AUTO 13008KT 6SM -RA BR FEW013 OVC100 13/13 A3036 RMK AO2 PRESFR SLP283 P0005 T01330128
KAUG 252151Z AUTO 14008KT 6SM -RA BR SCT013 BKN090 OVC110 13/13 A3036 RMK AO2 P0005
KAUG 252108Z AUTO 14006KT 5SM -RA BR BKN012 BKN055 OVC090 13/13 A3040 RMK AO2 P0002 T01330128
KAUG 252053Z AUTO 15011KT 6SM -RA BR SCT014 BKN045 OVC100 13/13 A3040 RMK AO2 SLP298 P0001 60002 T01330128 56030
KAUG 252017Z AUTO 15008KT 9SM -RA BKN013 OVC033 13/12 A3042 RMK AO2 P0001 T01330122
KAUG 251953Z AUTO 15008KT 10SM -RA BKN015 OVC032 14/12 A3043 RMK AO2 SLP307 P0001 T01390122
KAUG 251853Z AUTO 16009G16KT 10SM -RA OVC020 14/11 A3046 RMK AO2 RAB20 SLP317 P0000 T01440111
KAUG 251753Z AUTO 16008G16KT 120V180 10SM BKN021 BKN028 OVC036 14/11 A3049 RMK AO2 SLP327 T01440106 10144 20044 58031
KAUG 251653Z AUTO 17007KT 10SM OVC023 14/09 A3053 RMK AO2 SLP339 T01390094
KAUG 251637Z AUTO 16006KT 10SM BKN023 BKN030 14/09 A3053 RMK AO2 T01390094
KAUG 251553Z AUTO 15005KT 10SM SCT032 13/08 A3055 RMK AO2 SLP348 T01280083
KAUG 251453Z AUTO 00000KT 10SM BKN032 11/07 A3059 RMK AO2 SLP360 T01060067 56011
KAUG 251353Z AUTO 00000KT 10SM BKN032 08/05 A3059 RMK AO2 SLP362 T00780050
KAUG 251253Z AUTO 04003KT 10SM CLR 06/03 A3061 RMK AO2 SLP367 T00610033
KAUG 251153Z AUTO 35003KT 10SM CLR 04/03 A3062 RMK AO2 SLP371 T00440033 10044 20022 55000
KAUG 251053Z AUTO 00000KT 10SM CLR 03/02 A3061 RMK AO2 SLP370 T00280017
KAUG 250953Z AUTO 01004KT 10SM CLR 03/02 A3062 RMK AO2 SLP370 T00280017
KAUG 250853Z AUTO 00000KT 10SM CLR 03/02 A3062 RMK AO2 SLP371 T00330022 56010
KAUG 250753Z AUTO 36003KT 10SM CLR 04/02 A3062 RMK AO2 SLP372 T00390022
KAUG 250653Z AUTO 00000KT 10SM CLR 03/02 A3063 RMK AO2 SLP377 T00330022
KAUG 250553Z AUTO 00000KT 10SM CLR 04/02 A3065 RMK AO2 SLP381 T00390022 10083 20039 58005
KAUG 250453Z AUTO 00000KT 10SM CLR 05/03 A3066 RMK AO2 SLP385 T00500033 401390050
KAUG 250353Z AUTO 00000KT 10SM CLR 06/02 A3067 RMK AO2 SLP388 T00560022
KAUG 250253Z AUTO 00000KT 10SM CLR 06/02 A3066 RMK AO2 SLP386 T00610017 51002
KAUG 250153Z AUTO 00000KT 10SM CLR 06/02 A3066 RMK AO2 SLP386 T00610022
KAUG 250053Z AUTO 00000KT 10SM CLR 07/02 A3067 RMK AO2 SLP387 T00720017
KAUG 242353Z AUTO VRB03KT 10SM CLR 08/02 A3066 RMK AO2 SLP385 T00830017 10139 20083 53019